createdAt,value
2019-05-13T00:00:25.335Z,1.13
2019-05-13T00:02:56.147Z,1.27
2019-05-13T00:05:26.936Z,1.80
2019-05-13T00:07:58.896Z,1.30
2019-05-13T00:10:29.702Z,1.07
2019-05-13T00:13:00.875Z,1.80
2019-05-13T00:15:34.137Z,1.37
2019-05-13T00:18:04.273Z,1.20
2019-05-13T00:20:35.287Z,1.30
2019-05-13T00:23:06.038Z,1.27
2019-05-13T00:25:36.930Z,1.23
2019-05-13T00:28:07.748Z,1.63
2019-05-13T00:30:39.667Z,1.10
2019-05-13T00:33:10.473Z,1.63
2019-05-13T00:35:41.313Z,1.30
2019-05-13T00:38:14.107Z,1.60
2019-05-13T00:40:44.761Z,1.10
2019-05-13T00:43:15.562Z,1.33
2019-05-13T00:45:46.455Z,1.40
2019-05-13T00:48:17.303Z,1.20
2019-05-13T00:50:48.475Z,1.27
2019-05-13T00:53:19.221Z,1.40
2019-05-13T00:55:50.138Z,1.43
2019-05-13T00:58:20.882Z,1.33
2019-05-13T01:00:51.637Z,1.13
2019-05-13T01:03:24.539Z,1.23
2019-05-13T01:05:54.871Z,1.43
2019-05-13T01:08:25.828Z,1.40
2019-05-13T01:10:56.641Z,1.37
2019-05-13T01:13:27.414Z,1.60
2019-05-13T01:15:58.190Z,1.50
2019-05-13T01:18:28.973Z,1.43
2019-05-13T01:20:59.888Z,1.50
2019-05-13T01:23:30.644Z,1.17
2019-05-13T01:26:03.719Z,1.40
2019-05-13T01:28:34.430Z,1.73
2019-05-13T01:31:05.505Z,1.30
2019-05-13T01:33:36.239Z,1.03
2019-05-13T01:36:07.001Z,1.27
2019-05-13T01:38:38.877Z,1.23
2019-05-13T01:41:09.626Z,1.40
2019-05-13T01:43:40.366Z,1.30
2019-05-13T01:46:13.336Z,1.47
2019-05-13T01:48:44.843Z,1.37
2019-05-13T01:51:15.782Z,1.60
2019-05-13T01:53:47.644Z,1.43
2019-05-13T01:56:18.599Z,1.50
2019-05-13T01:58:49.353Z,1.57
2019-05-13T02:01:20.550Z,1.63
2019-05-13T02:03:51.291Z,1.67
2019-05-13T02:06:24.094Z,1.53
2019-05-13T02:08:54.734Z,1.63
2019-05-13T02:11:25.670Z,1.50
2019-05-13T02:13:56.486Z,1.27
2019-05-13T02:16:27.447Z,1.30
2019-05-13T02:18:58.183Z,1.50
2019-05-13T02:21:30.566Z,2.00
2019-05-13T02:24:01.287Z,1.17
2019-05-13T02:26:34.343Z,1.50
2019-05-13T02:29:04.908Z,1.83
2019-05-13T02:31:45.966Z,1.20
2019-05-13T02:34:08.183Z,1.60
2019-05-13T02:36:43.589Z,1.67
2019-05-13T02:39:13.070Z,1.77
2019-05-13T02:41:44.041Z,1.60
2019-05-13T02:44:14.860Z,2.23
2019-05-13T02:46:45.583Z,1.47
2019-05-13T02:49:16.348Z,1.73
2019-05-13T02:51:47.117Z,1.60
2019-05-13T02:54:19.002Z,1.50
2019-05-13T02:56:52.483Z,1.70
2019-05-13T02:59:22.837Z,1.60
2019-05-13T03:01:53.933Z,2.37
2019-05-13T03:04:24.669Z,1.67
2019-05-13T03:06:55.475Z,2.10
2019-05-13T03:09:26.295Z,1.30
2019-05-13T03:11:57.069Z,1.40
2019-05-13T03:14:27.867Z,1.70
2019-05-13T03:17:13.285Z,1.67
2019-05-13T03:19:44.199Z,1.17
2019-05-13T03:22:15.038Z,1.70
2019-05-13T03:24:46.864Z,1.57
2019-05-13T03:27:20.677Z,1.57
2019-05-13T03:29:53.346Z,1.70
2019-05-13T03:32:27.163Z,1.77
2019-05-13T03:34:57.165Z,1.50
2019-05-13T03:37:34.934Z,1.57
2019-05-13T03:40:05.131Z,1.53
2019-05-13T03:42:36.915Z,1.70
2019-05-13T03:45:07.671Z,2.37
2019-05-13T03:47:42.025Z,1.80
2019-05-13T03:50:13.009Z,1.80
2019-05-13T03:52:43.921Z,1.97
2019-05-13T03:55:14.719Z,1.77
2019-05-13T03:57:46.538Z,2.00
2019-05-13T04:00:17.680Z,1.83
2019-05-13T04:02:48.623Z,1.80
2019-05-13T04:05:22.704Z,1.37
2019-05-13T04:07:52.501Z,1.70
2019-05-13T04:10:23.613Z,2.03
2019-05-13T04:12:54.526Z,1.70
2019-05-13T04:15:25.258Z,1.23
2019-05-13T04:17:56.004Z,1.70
2019-05-13T04:20:26.775Z,1.80
2019-05-13T04:22:57.703Z,2.37
2019-05-13T04:25:32.040Z,1.97
2019-05-13T04:28:03.258Z,2.00
2019-05-13T04:30:33.915Z,1.53
2019-05-13T04:33:04.705Z,2.13
2019-05-13T04:35:35.458Z,2.40
2019-05-13T04:38:09.262Z,1.80
2019-05-13T04:40:42.449Z,1.43
2019-05-13T04:43:13.308Z,1.97
2019-05-13T04:45:44.269Z,2.40
2019-05-13T04:48:17.060Z,2.10
2019-05-13T04:50:47.932Z,1.73
2019-05-13T04:53:18.758Z,2.23
2019-05-13T04:55:52.417Z,2.80
2019-05-13T04:58:23.582Z,3.43
2019-05-13T05:01:40.184Z,3.37
2019-05-13T05:04:30.587Z,3.00
2019-05-13T05:07:09.005Z,2.40
2019-05-13T05:10:22.063Z,2.77
2019-05-13T05:13:29.102Z,2.50
2019-05-13T05:16:07.099Z,2.50
2019-05-13T05:19:23.742Z,2.30
2019-05-13T05:22:13.226Z,2.90
2019-05-13T05:24:54.426Z,2.80
2019-05-13T05:28:17.264Z,2.30
2019-05-13T05:31:19.909Z,2.23
2019-05-13T05:34:41.979Z,2.37
2019-05-13T05:37:55.107Z,2.80
2019-05-13T05:40:31.284Z,3.17
2019-05-13T05:43:02.443Z,2.97
2019-05-13T05:45:37.618Z,2.70
2019-05-13T05:48:08.791Z,2.20
2019-05-13T05:50:42.389Z,2.77
2019-05-13T05:53:14.941Z,2.90
2019-05-13T05:55:47.538Z,3.07
2019-05-13T05:58:22.678Z,2.50
2019-05-13T06:00:55.924Z,2.90
2019-05-13T06:03:28.415Z,3.10
2019-05-13T06:05:59.158Z,2.63
2019-05-13T06:08:32.190Z,2.93
2019-05-13T06:11:03.247Z,2.83
2019-05-13T06:13:34.420Z,2.40
2019-05-13T06:16:05.367Z,2.77
2019-05-13T06:18:36.183Z,2.57
2019-05-13T06:21:07.048Z,2.53
2019-05-13T06:23:38.879Z,2.83
2019-05-13T06:26:12.440Z,3.33
2019-05-13T06:28:42.330Z,2.87
2019-05-13T06:31:13.290Z,2.40
2019-05-13T06:33:44.103Z,3.40
2019-05-13T06:36:14.882Z,2.83
2019-05-13T06:38:46.401Z,2.33
2019-05-13T06:41:17.186Z,2.57
2019-05-13T06:43:48.120Z,2.40
2019-05-13T06:46:21.848Z,2.50
2019-05-13T06:48:52.770Z,2.70
2019-05-13T06:51:24.026Z,2.47
2019-05-13T06:53:55.559Z,2.73
2019-05-13T06:56:26.289Z,2.20
2019-05-13T06:58:57.067Z,2.23
2019-05-13T07:01:27.838Z,2.57
2019-05-13T07:03:58.650Z,3.40
2019-05-13T07:06:32.258Z,2.30
2019-05-13T07:09:04.555Z,2.40
2019-05-13T07:11:35.438Z,2.70
2019-05-13T07:14:06.470Z,2.13
2019-05-13T07:16:37.296Z,2.00
2019-05-13T07:19:11.557Z,1.87
2019-05-13T07:21:42.786Z,2.63
2019-05-13T07:24:13.549Z,2.17
2019-05-13T07:26:44.412Z,1.37
2019-05-13T07:29:15.617Z,1.73
2019-05-13T07:31:46.923Z,1.77
2019-05-13T07:34:17.686Z,1.50
2019-05-13T07:36:51.169Z,1.67
2019-05-13T07:39:22.414Z,1.80
2019-05-13T07:41:53.367Z,1.60
2019-05-13T07:44:24.174Z,1.50
2019-05-13T07:46:54.947Z,2.43
2019-05-13T07:49:25.737Z,1.40
2019-05-13T07:51:56.514Z,1.73
2019-05-13T07:54:28.134Z,1.40
2019-05-13T07:57:01.601Z,1.80
2019-05-13T07:59:31.978Z,1.67
2019-05-13T08:02:04.519Z,1.60
2019-05-13T08:04:35.475Z,1.33
2019-05-13T08:07:06.277Z,1.80
2019-05-13T08:09:37.099Z,1.27
2019-05-13T08:12:10.930Z,1.50
2019-05-13T08:14:43.277Z,1.33
2019-05-13T08:17:13.346Z,1.40
2019-05-13T08:19:44.279Z,1.43
2019-05-13T08:22:16.164Z,2.53
2019-05-13T08:24:46.982Z,1.93
2019-05-13T08:27:21.572Z,1.60
2019-05-13T08:29:52.157Z,1.40
2019-05-13T08:32:22.858Z,1.60
2019-05-13T08:35:01.295Z,1.50
2019-05-13T08:37:26.231Z,2.43
2019-05-13T08:39:56.978Z,1.50
2019-05-13T08:42:27.765Z,1.37
2019-05-13T08:45:01.261Z,2.20
2019-05-13T08:47:31.464Z,1.20
2019-05-13T08:50:04.449Z,1.45
2019-05-13T08:52:35.107Z,2.00
2019-05-13T08:55:06.311Z,1.30
2019-05-13T08:57:38.855Z,1.50
2019-05-13T09:00:13.471Z,1.32
2019-05-13T09:02:42.620Z,1.17
2019-05-13T09:05:15.233Z,1.35
2019-05-13T09:07:47.283Z,1.30
2019-05-13T09:10:18.458Z,1.98
2019-05-13T09:12:49.198Z,1.47
2019-05-13T09:15:22.317Z,1.30
2019-05-13T09:17:52.507Z,1.20
2019-05-13T09:20:23.405Z,1.27
2019-05-13T09:22:54.284Z,1.40
2019-05-13T09:25:25.117Z,1.10
2019-05-13T09:27:57.081Z,1.40
2019-05-13T09:30:28.246Z,1.20
2019-05-13T09:45:27.592Z,1.50
2019-05-13T09:47:58.449Z,1.25
2019-05-13T09:50:35.248Z,1.50
2019-05-13T09:53:03.295Z,1.40
2019-05-13T09:55:35.219Z,1.20
2019-05-13T09:58:07.274Z,1.50
2019-05-13T10:00:38.167Z,1.35
2019-05-13T10:03:08.928Z,1.13
2019-05-13T10:05:39.824Z,1.10
2019-05-13T10:08:12.548Z,1.30
2019-05-13T10:10:43.210Z,1.30
2019-05-13T10:13:15.712Z,1.10
2019-05-13T10:15:48.875Z,1.30
2019-05-13T10:18:21.931Z,1.20
2019-05-13T10:20:58.317Z,1.10
2019-05-13T10:23:28.333Z,1.10
2019-05-13T10:26:03.499Z,1.30
2019-05-13T10:28:35.912Z,1.00
2019-05-13T10:31:07.594Z,1.60
2019-05-13T10:33:38.483Z,1.10
2019-05-13T10:36:11.960Z,1.20
2019-05-13T10:38:41.897Z,1.00
2019-05-13T10:41:13.782Z,1.47
2019-05-13T10:43:45.006Z,1.10
2019-05-13T10:46:15.876Z,1.60
2019-05-13T10:48:47.772Z,1.00
2019-05-13T10:51:18.599Z,1.60
2019-05-13T10:53:49.359Z,0.90
2019-05-13T10:56:20.357Z,1.07
2019-05-13T10:58:53.399Z,1.30
2019-05-13T11:01:23.803Z,1.50
2019-05-13T11:03:54.547Z,1.07
2019-05-13T11:06:25.430Z,1.10
2019-05-13T11:08:56.248Z,1.10
2019-05-13T11:11:27.312Z,1.30
2019-05-13T11:14:03.714Z,1.17
2019-05-13T11:16:30.698Z,1.03
2019-05-13T11:19:02.804Z,0.90
2019-05-13T11:21:34.034Z,1.00
2019-05-13T11:24:05.246Z,1.10
2019-05-13T11:26:36.738Z,0.93
2019-05-13T11:29:07.735Z,0.90
2019-05-13T11:31:38.661Z,1.00
2019-05-13T11:34:09.640Z,0.80
2019-05-13T11:36:43.220Z,1.07
2019-05-13T11:39:14.350Z,1.10
2019-05-13T11:41:45.341Z,1.10
2019-05-13T11:44:17.080Z,0.80
2019-05-13T11:46:48.125Z,0.90
2019-05-13T11:49:18.971Z,1.00
2019-05-13T11:51:51.941Z,1.03
2019-05-13T11:54:22.580Z,1.20
2019-05-13T11:57:01.613Z,1.20
2019-05-13T11:59:26.934Z,1.10
2019-05-13T12:01:57.750Z,1.10
2019-05-13T12:04:28.726Z,1.17
2019-05-13T12:07:02.622Z,1.17
2019-05-13T12:09:32.152Z,1.00
2019-05-13T12:12:04.161Z,0.90
2019-05-13T12:14:56.157Z,0.83
2019-05-13T12:17:07.505Z,1.00
2019-05-13T12:19:41.832Z,1.10
2019-05-13T12:22:13.175Z,0.90
2019-05-13T12:24:44.286Z,1.20
2019-05-13T12:27:15.889Z,1.60
2019-05-13T12:29:46.759Z,0.90
2019-05-13T12:32:17.588Z,0.90
2019-05-13T12:34:48.476Z,1.60
2019-05-13T12:37:21.930Z,0.87
2019-05-13T12:39:53.170Z,0.90
2019-05-13T12:42:24.313Z,1.30
2019-05-13T12:45:08.215Z,1.13
2019-05-13T12:47:27.969Z,1.10
2019-05-13T12:49:58.741Z,1.00
2019-05-13T12:52:32.311Z,0.77
2019-05-13T12:55:03.343Z,1.37
2019-05-13T12:57:34.383Z,0.83
2019-05-13T13:00:07.712Z,1.13
2019-05-13T13:02:38.614Z,1.00
2019-05-13T13:05:18.433Z,0.90
2019-05-13T13:07:42.636Z,1.50
2019-05-13T13:10:14.480Z,1.60
2019-05-13T13:12:45.668Z,1.90
2019-05-13T13:15:36.421Z,1.10
2019-05-13T13:17:53.618Z,1.00
2019-05-13T13:20:24.290Z,1.00
2019-05-13T13:22:54.634Z,0.90
2019-05-13T13:25:25.478Z,0.80
2019-05-13T13:28:11.046Z,1.00
2019-05-13T13:30:34.566Z,1.07
2019-05-13T13:33:03.080Z,1.40
2019-05-13T13:35:34.159Z,1.20
2019-05-13T13:38:04.990Z,1.17
2019-05-13T13:40:36.051Z,1.27
2019-05-13T13:43:06.945Z,0.93
2019-05-13T13:46:06.187Z,1.00
2019-05-13T13:48:13.410Z,1.20
2019-05-13T13:50:44.266Z,1.00
2019-05-13T13:53:15.457Z,1.03
2019-05-13T13:55:46.678Z,1.20
2019-05-13T13:58:17.775Z,0.97
2019-05-13T14:01:01.717Z,0.90
2019-05-13T14:03:21.872Z,1.10
2019-05-13T14:05:54.416Z,0.80
2019-05-13T14:08:25.751Z,0.80
2019-05-13T14:10:56.547Z,1.00
2019-05-13T14:13:27.356Z,1.00
2019-05-13T14:16:01.854Z,0.93
2019-05-13T14:18:32.460Z,0.97
2019-05-13T14:21:03.602Z,0.80
2019-05-13T14:23:37.714Z,1.13
2019-05-13T14:26:07.038Z,1.60
2019-05-13T14:28:37.906Z,1.17
2019-05-13T14:31:10.362Z,1.23
2019-05-13T14:33:42.498Z,0.93
2019-05-13T14:36:13.802Z,1.20
2019-05-13T14:38:44.625Z,0.90
2019-05-13T14:41:15.577Z,1.10
2019-05-13T14:43:46.500Z,1.20
2019-05-13T14:46:17.311Z,1.10
2019-05-13T14:48:48.631Z,1.30
2019-05-13T14:51:21.722Z,1.27
2019-05-13T14:53:52.158Z,1.40
2019-05-13T14:56:23.101Z,1.33
2019-05-13T14:58:53.920Z,1.40
2019-05-13T15:01:24.874Z,1.53
2019-05-13T15:03:57.174Z,1.40
2019-05-13T15:06:28.275Z,1.20
2019-05-13T15:09:01.586Z,1.40
2019-05-13T15:11:32.456Z,1.47
2019-05-13T15:14:04.451Z,1.30
2019-05-13T15:16:35.427Z,1.33
2019-05-13T15:19:06.372Z,1.40
2019-05-13T15:21:37.382Z,1.20
2019-05-13T15:24:08.306Z,1.37
2019-05-13T15:26:39.186Z,1.03
2019-05-13T15:29:11.431Z,1.50
2019-05-13T15:31:42.706Z,1.27
2019-05-13T15:34:13.746Z,1.37
2019-05-13T15:36:45.784Z,1.40
2019-05-13T15:39:16.850Z,1.53
2019-05-13T15:41:52.162Z,1.00
2019-05-13T15:44:22.308Z,1.33
2019-05-13T15:46:53.239Z,1.47
2019-05-13T15:49:24.044Z,1.20
2019-05-13T15:51:58.109Z,1.40
2019-05-13T15:54:28.957Z,1.43
2019-05-13T15:57:01.915Z,1.60
2019-05-13T15:59:32.372Z,1.50
2019-05-13T16:02:03.269Z,1.50
2019-05-13T16:04:49.031Z,1.20
2019-05-13T16:07:08.618Z,1.63
2019-05-13T16:09:41.605Z,1.40
2019-05-13T16:12:12.317Z,1.60
2019-05-13T16:14:43.195Z,1.60
2019-05-13T16:17:14.480Z,1.80
2019-05-13T16:19:45.430Z,1.50
2019-05-13T16:22:16.344Z,1.37
2019-05-13T16:24:52.097Z,1.40
2019-05-13T16:27:22.986Z,1.23
2019-05-13T16:29:53.926Z,1.17
2019-05-13T16:32:25.788Z,1.30
2019-05-13T16:34:56.786Z,1.30
2019-05-13T16:37:27.659Z,1.13
2019-05-13T16:39:58.549Z,1.07
2019-05-13T16:42:31.687Z,10.10
2019-05-13T16:45:05.349Z,8.17
2019-05-13T16:47:36.292Z,2.77
2019-05-13T16:50:07.886Z,1.30
2019-05-13T16:52:38.679Z,2.03
2019-05-13T16:55:12.856Z,5.13
2019-05-13T16:57:43.553Z,5.03
2019-05-13T17:00:16.398Z,6.50
2019-05-13T17:02:51.827Z,10.23
2019-05-13T17:05:22.896Z,2.20
2019-05-13T17:07:53.741Z,0.93
2019-05-13T17:10:24.673Z,1.00
2019-05-13T17:12:55.465Z,1.13
2019-05-13T17:15:26.691Z,0.80
2019-05-13T17:18:09.189Z,1.00
2019-05-13T17:20:52.058Z,1.27
2019-05-13T17:23:23.201Z,1.10
2019-05-13T17:25:54.029Z,1.05
2019-05-13T17:28:25.998Z,0.97
2019-05-13T17:30:56.887Z,1.00
2019-05-13T17:33:27.857Z,1.07
2019-05-13T17:35:58.720Z,0.93
2019-05-13T17:38:29.569Z,0.83
2019-05-13T17:41:02.263Z,0.60
2019-05-13T17:43:33.113Z,0.80
2019-05-13T17:46:04.312Z,0.83
2019-05-13T17:48:35.195Z,0.90
2019-05-13T17:51:06.022Z,0.90
2019-05-13T17:53:36.919Z,1.10
2019-05-13T17:56:07.805Z,0.90
2019-05-13T17:58:38.848Z,0.83
2019-05-13T18:01:11.936Z,1.47
2019-05-13T18:03:42.382Z,0.70
2019-05-13T18:06:13.194Z,0.80
2019-05-13T18:08:44.016Z,0.93
2019-05-13T18:11:15.044Z,0.80
2019-05-13T18:13:45.927Z,0.60
2019-05-13T18:16:16.891Z,0.50
2019-05-13T18:18:47.906Z,0.80
2019-05-13T18:21:18.928Z,0.77
2019-05-13T18:23:52.140Z,1.00
2019-05-13T18:26:22.619Z,0.50
2019-05-13T18:28:53.549Z,0.80
2019-05-13T18:31:25.077Z,0.40
2019-05-13T18:33:57.461Z,0.50
2019-05-13T18:36:31.688Z,0.73
2019-05-13T18:39:02.105Z,0.63
2019-05-13T18:41:34.248Z,0.47
2019-05-13T18:44:07.070Z,0.60
2019-05-13T18:46:38.075Z,0.60
2019-05-13T18:49:09.187Z,0.57
2019-05-13T18:51:42.166Z,0.70
2019-05-13T18:54:14.551Z,0.70
2019-05-13T18:56:47.565Z,0.80
2019-05-13T18:59:21.298Z,0.93
2019-05-13T19:01:52.954Z,0.63
2019-05-13T19:16:52.897Z,0.57
2019-05-13T19:19:24.200Z,0.60
2019-05-13T19:21:56.738Z,0.50
2019-05-13T19:24:27.701Z,0.70
2019-05-13T19:26:58.747Z,0.60
2019-05-13T19:29:31.985Z,0.43
2019-05-13T19:32:03.176Z,0.67
2019-05-13T19:34:35.148Z,0.60
2019-05-13T19:37:06.061Z,0.70
2019-05-13T19:39:37.012Z,0.70
2019-05-13T19:42:08.209Z,0.80
2019-05-13T19:44:39.280Z,0.50
2019-05-13T19:47:12.409Z,0.60
2019-05-13T19:49:46.474Z,0.87
2019-05-13T19:52:16.627Z,0.78
2019-05-13T19:54:47.602Z,0.87
2019-05-13T19:57:21.293Z,1.03
2019-05-13T19:59:52.277Z,1.10
2019-05-13T20:02:23.307Z,0.90
2019-05-13T20:04:54.238Z,0.67
2019-05-13T20:07:27.301Z,0.80
2019-05-13T20:09:58.229Z,0.73
2019-05-13T20:12:31.192Z,1.00
2019-05-13T20:15:02.062Z,1.07
2019-05-13T20:17:33.105Z,0.85
2019-05-13T20:20:04.452Z,0.78
2019-05-13T20:22:37.156Z,0.93
2019-05-13T20:25:10.316Z,1.10
2019-05-13T20:27:42.163Z,0.80
2019-05-13T20:30:13.798Z,0.80
2019-05-13T20:32:44.619Z,0.60
2019-05-13T20:35:16.026Z,0.80
2019-05-13T20:37:46.967Z,0.80
2019-05-13T20:40:18.460Z,0.90
2019-05-13T20:42:51.408Z,0.80
2019-05-13T20:45:22.573Z,0.80
2019-05-13T20:47:53.755Z,1.00
2019-05-13T20:50:25.960Z,0.80
2019-05-13T20:52:56.915Z,1.00
2019-05-13T20:55:27.845Z,0.93
2019-05-13T20:57:58.744Z,0.75
2019-05-13T21:00:31.413Z,0.80
2019-05-13T21:03:02.932Z,0.90
2019-05-13T21:05:33.926Z,0.78
2019-05-13T21:08:04.984Z,0.70
2019-05-13T21:10:35.846Z,0.88
2019-05-13T21:13:06.912Z,0.50
2019-05-13T21:15:37.893Z,0.60
2019-05-13T21:18:08.861Z,0.57
2019-05-13T21:20:41.000Z,0.70
2019-05-13T21:23:11.954Z,0.80
2019-05-13T21:25:42.836Z,0.67
2019-05-13T21:28:13.847Z,0.70
2019-05-13T21:30:44.626Z,0.50
2019-05-13T21:33:15.599Z,0.60
2019-05-13T21:35:46.411Z,0.60
2019-05-13T21:38:17.379Z,0.60
2019-05-13T21:40:48.162Z,0.60
2019-05-13T21:43:21.415Z,0.70
2019-05-13T21:45:52.256Z,0.50
2019-05-13T21:48:23.377Z,0.80
2019-05-13T21:50:54.340Z,0.83
2019-05-13T21:53:25.246Z,0.60
2019-05-13T21:55:56.092Z,0.50
2019-05-13T21:58:26.969Z,0.70
2019-05-13T22:01:01.558Z,0.70
2019-05-13T22:03:34.433Z,0.93
2019-05-13T22:06:05.506Z,0.70
2019-05-13T22:08:36.378Z,0.70
2019-05-13T22:11:07.141Z,0.63
2019-05-13T22:13:37.982Z,0.80
2019-05-13T22:16:08.770Z,0.77
2019-05-13T22:18:41.608Z,0.40
2019-05-13T22:21:12.031Z,0.23
2019-05-13T22:23:42.938Z,0.80
2019-05-13T22:26:13.832Z,0.93
2019-05-13T22:28:44.691Z,1.10
2019-05-13T22:31:15.607Z,0.73
2019-05-13T22:33:46.663Z,0.80
2019-05-13T22:36:17.499Z,0.63
2019-05-13T22:38:48.264Z,0.80
2019-05-13T22:41:19.128Z,1.17
2019-05-13T22:43:55.667Z,1.10
2019-05-13T22:46:22.319Z,0.78
2019-05-13T22:48:53.122Z,0.95
2019-05-13T22:51:23.999Z,1.17
2019-05-13T22:53:55.042Z,0.80
2019-05-13T22:56:25.813Z,0.90
2019-05-13T22:58:56.609Z,0.93
2019-05-13T23:01:27.385Z,0.90
2019-05-13T23:03:58.199Z,1.02
2019-05-13T23:06:29.093Z,0.90
2019-05-13T23:09:01.803Z,0.70
2019-05-13T23:11:33.292Z,1.10
2019-05-13T23:14:09.788Z,0.90
2019-05-13T23:16:36.847Z,0.90
2019-05-13T23:19:07.635Z,1.10
2019-05-13T23:21:38.543Z,1.27
2019-05-13T23:24:11.328Z,1.00
2019-05-13T23:26:42.369Z,1.20
2019-05-13T23:29:13.298Z,1.25
2019-05-13T23:31:44.086Z,1.10
2019-05-13T23:34:15.966Z,1.12
2019-05-13T23:36:46.819Z,1.27
2019-05-13T23:39:17.663Z,1.10
2019-05-13T23:41:48.406Z,1.20
2019-05-13T23:44:27.034Z,1.00
2019-05-13T23:46:52.845Z,1.10
2019-05-13T23:49:23.738Z,1.40
2019-05-13T23:51:54.679Z,0.90
2019-05-13T23:54:25.578Z,1.10
2019-05-13T23:56:56.494Z,1.17
2019-05-13T23:59:31.097Z,1.20
